sensor_id;sensor_type;location;lat;lon;timestamp;P1;durP1;ratioP1;P2;durP2;ratioP2
69594;SDS011;56800;52.142;5.364;2023-05-07T00:01:17;15.67;;;10.50;;
69594;SDS011;56800;52.142;5.364;2023-05-07T00:03:45;14.65;;;10.18;;
69594;SDS011;56800;52.142;5.364;2023-05-07T00:06:12;19.27;;;11.38;;
69594;SDS011;56800;52.142;5.364;2023-05-07T00:08:40;14.15;;;11.48;;
69594;SDS011;56800;52.142;5.364;2023-05-07T00:11:06;14.05;;;10.00;;
69594;SDS011;56800;52.142;5.364;2023-05-07T00:13:33;18.00;;;10.87;;
69594;SDS011;56800;52.142;5.364;2023-05-07T00:16:02;12.15;;;9.75;;
69594;SDS011;56800;52.142;5.364;2023-05-07T00:18:29;16.27;;;10.60;;
69594;SDS011;56800;52.142;5.364;2023-05-07T00:20:56;15.18;;;10.48;;
69594;SDS011;56800;52.142;5.364;2023-05-07T00:23:23;15.15;;;9.98;;
69594;SDS011;56800;52.142;5.364;2023-05-07T00:25:49;13.17;;;10.17;;
69594;SDS011;56800;52.142;5.364;2023-05-07T00:28:16;21.70;;;11.55;;
69594;SDS011;56800;52.142;5.364;2023-05-07T00:30:43;17.70;;;10.38;;
69594;SDS011;56800;52.142;5.364;2023-05-07T00:33:09;12.65;;;9.85;;
69594;SDS011;56800;52.142;5.364;2023-05-07T00:35:36;18.00;;;10.23;;
69594;SDS011;56800;52.142;5.364;2023-05-07T00:38:03;15.20;;;10.67;;
69594;SDS011;56800;52.142;5.364;2023-05-07T00:40:29;14.07;;;10.13;;
69594;SDS011;56800;52.142;5.364;2023-05-07T00:42:56;14.27;;;9.73;;
69594;SDS011;56800;52.142;5.364;2023-05-07T00:45:27;14.00;;;9.70;;
69594;SDS011;56800;52.142;5.364;2023-05-07T00:47:55;13.35;;;9.90;;
69594;SDS011;56800;52.142;5.364;2023-05-07T00:50:23;14.60;;;10.10;;
69594;SDS011;56800;52.142;5.364;2023-05-07T00:52:51;12.10;;;9.27;;
69594;SDS011;56800;52.142;5.364;2023-05-07T00:55:17;13.40;;;9.95;;
69594;SDS011;56800;52.142;5.364;2023-05-07T00:57:44;15.02;;;9.55;;
69594;SDS011;56800;52.142;5.364;2023-05-07T01:00:11;14.38;;;10.00;;
69594;SDS011;56800;52.142;5.364;2023-05-07T01:02:39;13.30;;;9.47;;
69594;SDS011;56800;52.142;5.364;2023-05-07T01:05:17;16.08;;;9.70;;
69594;SDS011;56800;52.142;5.364;2023-05-07T01:07:45;14.30;;;9.65;;
69594;SDS011;56800;52.142;5.364;2023-05-07T01:10:13;15.43;;;9.43;;
69594;SDS011;56800;52.142;5.364;2023-05-07T01:12:41;11.88;;;9.32;;
69594;SDS011;56800;52.142;5.364;2023-05-07T01:15:09;10.33;;;9.00;;
69594;SDS011;56800;52.142;5.364;2023-05-07T01:17:37;16.00;;;10.30;;
69594;SDS011;56800;52.142;5.364;2023-05-07T01:20:06;13.70;;;8.98;;
69594;SDS011;56800;52.142;5.364;2023-05-07T01:22:34;19.33;;;9.55;;
69594;SDS011;56800;52.142;5.364;2023-05-07T01:25:03;11.85;;;9.13;;
69594;SDS011;56800;52.142;5.364;2023-05-07T01:27:31;12.80;;;9.83;;
69594;SDS011;56800;52.142;5.364;2023-05-07T01:29:59;12.40;;;8.77;;
69594;SDS011;56800;52.142;5.364;2023-05-07T01:32:32;15.70;;;9.88;;
69594;SDS011;56800;52.142;5.364;2023-05-07T01:35:05;15.63;;;10.10;;
69594;SDS011;56800;52.142;5.364;2023-05-07T01:37:34;17.10;;;10.85;;
69594;SDS011;56800;52.142;5.364;2023-05-07T01:40:01;11.63;;;9.40;;
69594;SDS011;56800;52.142;5.364;2023-05-07T01:42:29;13.23;;;8.82;;
69594;SDS011;56800;52.142;5.364;2023-05-07T01:44:56;13.38;;;9.65;;
69594;SDS011;56800;52.142;5.364;2023-05-07T01:47:23;11.98;;;9.43;;
69594;SDS011;56800;52.142;5.364;2023-05-07T01:49:51;12.98;;;9.23;;
69594;SDS011;56800;52.142;5.364;2023-05-07T01:52:18;15.27;;;10.47;;
69594;SDS011;56800;52.142;5.364;2023-05-07T01:54:44;12.15;;;9.43;;
69594;SDS011;56800;52.142;5.364;2023-05-07T01:57:11;12.85;;;9.77;;
69594;SDS011;56800;52.142;5.364;2023-05-07T01:59:37;19.15;;;10.27;;
69594;SDS011;56800;52.142;5.364;2023-05-07T02:02:04;14.63;;;9.75;;
69594;SDS011;56800;52.142;5.364;2023-05-07T02:04:31;19.77;;;11.70;;
69594;SDS011;56800;52.142;5.364;2023-05-07T02:06:57;12.85;;;10.02;;
69594;SDS011;56800;52.142;5.364;2023-05-07T02:09:24;14.00;;;9.63;;
69594;SDS011;56800;52.142;5.364;2023-05-07T02:11:51;13.13;;;9.68;;
69594;SDS011;56800;52.142;5.364;2023-05-07T02:14:17;14.68;;;9.70;;
69594;SDS011;56800;52.142;5.364;2023-05-07T02:16:46;17.67;;;9.87;;
69594;SDS011;56800;52.142;5.364;2023-05-07T02:19:12;18.52;;;10.73;;
69594;SDS011;56800;52.142;5.364;2023-05-07T02:21:39;14.82;;;9.05;;
69594;SDS011;56800;52.142;5.364;2023-05-07T02:24:06;10.95;;;8.40;;
69594;SDS011;56800;52.142;5.364;2023-05-07T02:26:32;18.05;;;9.65;;
69594;SDS011;56800;52.142;5.364;2023-05-07T02:29:00;12.83;;;10.07;;
69594;SDS011;56800;52.142;5.364;2023-05-07T02:31:26;16.33;;;11.13;;
69594;SDS011;56800;52.142;5.364;2023-05-07T02:33:53;15.88;;;10.10;;
69594;SDS011;56800;52.142;5.364;2023-05-07T02:36:20;15.00;;;9.43;;
69594;SDS011;56800;52.142;5.364;2023-05-07T02:38:46;14.52;;;10.73;;
69594;SDS011;56800;52.142;5.364;2023-05-07T02:41:13;13.00;;;10.03;;
69594;SDS011;56800;52.142;5.364;2023-05-07T02:43:39;11.05;;;9.82;;
69594;SDS011;56800;52.142;5.364;2023-05-07T02:46:07;16.77;;;11.00;;
69594;SDS011;56800;52.142;5.364;2023-05-07T02:48:35;15.65;;;11.43;;
69594;SDS011;56800;52.142;5.364;2023-05-07T02:51:02;12.82;;;9.95;;
69594;SDS011;56800;52.142;5.364;2023-05-07T02:53:29;13.67;;;10.07;;
69594;SDS011;56800;52.142;5.364;2023-05-07T02:55:57;13.73;;;10.88;;
69594;SDS011;56800;52.142;5.364;2023-05-07T02:58:24;14.07;;;10.40;;
69594;SDS011;56800;52.142;5.364;2023-05-07T03:00:51;15.73;;;12.07;;
69594;SDS011;56800;52.142;5.364;2023-05-07T03:03:20;17.40;;;11.25;;
69594;SDS011;56800;52.142;5.364;2023-05-07T03:05:47;14.20;;;10.67;;
69594;SDS011;56800;52.142;5.364;2023-05-07T03:08:14;15.85;;;10.98;;
69594;SDS011;56800;52.142;5.364;2023-05-07T03:10:40;14.07;;;10.50;;
69594;SDS011;56800;52.142;5.364;2023-05-07T03:13:07;22.50;;;12.18;;
69594;SDS011;56800;52.142;5.364;2023-05-07T03:15:34;17.60;;;12.00;;
69594;SDS011;56800;52.142;5.364;2023-05-07T03:18:01;15.53;;;12.07;;
69594;SDS011;56800;52.142;5.364;2023-05-07T03:20:28;14.65;;;10.10;;
69594;SDS011;56800;52.142;5.364;2023-05-07T03:22:54;17.77;;;11.32;;
69594;SDS011;56800;52.142;5.364;2023-05-07T03:25:21;15.38;;;11.02;;
69594;SDS011;56800;52.142;5.364;2023-05-07T03:27:48;14.65;;;10.52;;
69594;SDS011;56800;52.142;5.364;2023-05-07T03:30:15;17.97;;;11.70;;
69594;SDS011;56800;52.142;5.364;2023-05-07T03:32:41;15.90;;;11.68;;
69594;SDS011;56800;52.142;5.364;2023-05-07T03:35:08;16.27;;;11.27;;
69594;SDS011;56800;52.142;5.364;2023-05-07T03:37:35;13.88;;;11.07;;
69594;SDS011;56800;52.142;5.364;2023-05-07T03:40:02;23.85;;;12.40;;
69594;SDS011;56800;52.142;5.364;2023-05-07T03:42:29;14.57;;;12.03;;
69594;SDS011;56800;52.142;5.364;2023-05-07T03:44:56;19.13;;;13.20;;
69594;SDS011;56800;52.142;5.364;2023-05-07T03:47:23;22.85;;;12.57;;
69594;SDS011;56800;52.142;5.364;2023-05-07T03:49:50;18.55;;;12.35;;
69594;SDS011;56800;52.142;5.364;2023-05-07T03:52:19;18.50;;;13.60;;
69594;SDS011;56800;52.142;5.364;2023-05-07T03:54:49;18.27;;;13.10;;
69594;SDS011;56800;52.142;5.364;2023-05-07T03:57:16;17.33;;;12.35;;
69594;SDS011;56800;52.142;5.364;2023-05-07T03:59:43;15.15;;;11.63;;
69594;SDS011;56800;52.142;5.364;2023-05-07T04:02:09;14.88;;;12.18;;
69594;SDS011;56800;52.142;5.364;2023-05-07T04:04:36;15.18;;;11.93;;
69594;SDS011;56800;52.142;5.364;2023-05-07T04:07:02;24.77;;;13.47;;
69594;SDS011;56800;52.142;5.364;2023-05-07T04:09:29;20.17;;;12.57;;
69594;SDS011;56800;52.142;5.364;2023-05-07T04:11:56;16.80;;;12.77;;
69594;SDS011;56800;52.142;5.364;2023-05-07T04:14:23;14.45;;;11.20;;
69594;SDS011;56800;52.142;5.364;2023-05-07T04:16:49;16.38;;;12.88;;
69594;SDS011;56800;52.142;5.364;2023-05-07T04:19:16;16.53;;;12.30;;
69594;SDS011;56800;52.142;5.364;2023-05-07T04:21:43;12.82;;;11.10;;
69594;SDS011;56800;52.142;5.364;2023-05-07T04:24:09;17.05;;;12.57;;
69594;SDS011;56800;52.142;5.364;2023-05-07T04:26:36;16.85;;;12.05;;
69594;SDS011;56800;52.142;5.364;2023-05-07T04:29:03;17.88;;;11.95;;
69594;SDS011;56800;52.142;5.364;2023-05-07T04:31:29;18.10;;;12.77;;
69594;SDS011;56800;52.142;5.364;2023-05-07T04:33:56;16.77;;;12.13;;
69594;SDS011;56800;52.142;5.364;2023-05-07T04:36:23;21.13;;;13.85;;
69594;SDS011;56800;52.142;5.364;2023-05-07T04:38:53;17.77;;;12.45;;
69594;SDS011;56800;52.142;5.364;2023-05-07T04:41:20;16.98;;;11.65;;
69594;SDS011;56800;52.142;5.364;2023-05-07T04:43:47;15.40;;;12.67;;
69594;SDS011;56800;52.142;5.364;2023-05-07T04:46:13;20.48;;;12.35;;
69594;SDS011;56800;52.142;5.364;2023-05-07T04:48:40;18.20;;;12.35;;
69594;SDS011;56800;52.142;5.364;2023-05-07T04:51:06;17.73;;;13.18;;
69594;SDS011;56800;52.142;5.364;2023-05-07T04:53:33;17.65;;;12.55;;
69594;SDS011;56800;52.142;5.364;2023-05-07T04:56:00;17.67;;;12.93;;
69594;SDS011;56800;52.142;5.364;2023-05-07T04:58:26;21.58;;;14.00;;
69594;SDS011;56800;52.142;5.364;2023-05-07T05:00:53;17.27;;;12.38;;
69594;SDS011;56800;52.142;5.364;2023-05-07T05:03:20;17.17;;;12.63;;
69594;SDS011;56800;52.142;5.364;2023-05-07T05:05:48;17.42;;;12.05;;
69594;SDS011;56800;52.142;5.364;2023-05-07T05:08:15;15.40;;;12.87;;
69594;SDS011;56800;52.142;5.364;2023-05-07T05:10:43;16.10;;;12.27;;
69594;SDS011;56800;52.142;5.364;2023-05-07T05:13:09;20.65;;;12.80;;
69594;SDS011;56800;52.142;5.364;2023-05-07T05:15:38;22.10;;;13.63;;
69594;SDS011;56800;52.142;5.364;2023-05-07T05:18:05;18.02;;;12.90;;
69594;SDS011;56800;52.142;5.364;2023-05-07T05:20:32;17.13;;;13.63;;
69594;SDS011;56800;52.142;5.364;2023-05-07T05:22:59;23.98;;;13.27;;
69594;SDS011;56800;52.142;5.364;2023-05-07T05:25:26;16.02;;;13.38;;
69594;SDS011;56800;52.142;5.364;2023-05-07T05:27:53;22.30;;;12.95;;
69594;SDS011;56800;52.142;5.364;2023-05-07T05:30:20;19.27;;;14.13;;
69594;SDS011;56800;52.142;5.364;2023-05-07T05:32:48;20.97;;;14.37;;
69594;SDS011;56800;52.142;5.364;2023-05-07T05:35:15;21.08;;;13.25;;
69594;SDS011;56800;52.142;5.364;2023-05-07T05:37:41;19.73;;;13.98;;
69594;SDS011;56800;52.142;5.364;2023-05-07T05:40:08;20.33;;;13.13;;
69594;SDS011;56800;52.142;5.364;2023-05-07T05:42:35;17.15;;;13.98;;
69594;SDS011;56800;52.142;5.364;2023-05-07T05:45:02;21.40;;;14.10;;
69594;SDS011;56800;52.142;5.364;2023-05-07T05:47:29;22.92;;;13.07;;
69594;SDS011;56800;52.142;5.364;2023-05-07T05:49:56;19.95;;;13.57;;
69594;SDS011;56800;52.142;5.364;2023-05-07T05:52:23;19.58;;;13.25;;
69594;SDS011;56800;52.142;5.364;2023-05-07T05:54:50;20.33;;;14.35;;
69594;SDS011;56800;52.142;5.364;2023-05-07T05:57:16;21.37;;;14.03;;
69594;SDS011;56800;52.142;5.364;2023-05-07T05:59:43;16.77;;;13.45;;
69594;SDS011;56800;52.142;5.364;2023-05-07T06:02:10;20.92;;;14.45;;
69594;SDS011;56800;52.142;5.364;2023-05-07T06:04:37;19.77;;;13.60;;
69594;SDS011;56800;52.142;5.364;2023-05-07T06:07:04;24.00;;;14.52;;
69594;SDS011;56800;52.142;5.364;2023-05-07T06:09:30;18.57;;;14.07;;
69594;SDS011;56800;52.142;5.364;2023-05-07T06:11:57;20.15;;;14.35;;
69594;SDS011;56800;52.142;5.364;2023-05-07T06:14:26;18.38;;;13.77;;
69594;SDS011;56800;52.142;5.364;2023-05-07T06:16:52;19.45;;;14.13;;
69594;SDS011;56800;52.142;5.364;2023-05-07T06:19:20;26.67;;;14.88;;
69594;SDS011;56800;52.142;5.364;2023-05-07T06:21:49;20.93;;;14.03;;
69594;SDS011;56800;52.142;5.364;2023-05-07T06:24:16;19.30;;;14.30;;
69594;SDS011;56800;52.142;5.364;2023-05-07T06:26:43;22.92;;;15.15;;
69594;SDS011;56800;52.142;5.364;2023-05-07T06:29:09;22.25;;;15.25;;
69594;SDS011;56800;52.142;5.364;2023-05-07T06:31:36;22.88;;;15.50;;
69594;SDS011;56800;52.142;5.364;2023-05-07T06:34:03;22.67;;;15.30;;
69594;SDS011;56800;52.142;5.364;2023-05-07T06:36:31;26.95;;;15.75;;
69594;SDS011;56800;52.142;5.364;2023-05-07T06:38:57;25.70;;;17.10;;
69594;SDS011;56800;52.142;5.364;2023-05-07T06:41:24;20.08;;;15.65;;
69594;SDS011;56800;52.142;5.364;2023-05-07T06:43:51;27.38;;;16.20;;
69594;SDS011;56800;52.142;5.364;2023-05-07T06:46:18;20.03;;;16.17;;
69594;SDS011;56800;52.142;5.364;2023-05-07T06:48:45;22.77;;;17.52;;
69594;SDS011;56800;52.142;5.364;2023-05-07T06:51:12;28.15;;;17.35;;
69594;SDS011;56800;52.142;5.364;2023-05-07T06:53:38;21.02;;;16.02;;
69594;SDS011;56800;52.142;5.364;2023-05-07T06:56:05;26.10;;;17.15;;
69594;SDS011;56800;52.142;5.364;2023-05-07T06:58:32;24.20;;;16.67;;
69594;SDS011;56800;52.142;5.364;2023-05-07T07:00:59;21.25;;;17.45;;
69594;SDS011;56800;52.142;5.364;2023-05-07T07:03:26;24.02;;;17.23;;
69594;SDS011;56800;52.142;5.364;2023-05-07T07:05:53;22.15;;;15.95;;
69594;SDS011;56800;52.142;5.364;2023-05-07T07:08:21;23.13;;;18.63;;
69594;SDS011;56800;52.142;5.364;2023-05-07T07:10:48;25.37;;;17.57;;
69594;SDS011;56800;52.142;5.364;2023-05-07T07:13:15;22.80;;;17.30;;
69594;SDS011;56800;52.142;5.364;2023-05-07T07:15:42;24.70;;;18.98;;
69594;SDS011;56800;52.142;5.364;2023-05-07T07:18:09;24.10;;;18.20;;
69594;SDS011;56800;52.142;5.364;2023-05-07T07:20:36;24.45;;;18.20;;
69594;SDS011;56800;52.142;5.364;2023-05-07T07:23:03;25.33;;;18.00;;
69594;SDS011;56800;52.142;5.364;2023-05-07T07:25:29;25.23;;;17.27;;
69594;SDS011;56800;52.142;5.364;2023-05-07T07:27:56;22.67;;;17.77;;
69594;SDS011;56800;52.142;5.364;2023-05-07T07:30:23;22.05;;;17.33;;
69594;SDS011;56800;52.142;5.364;2023-05-07T07:32:50;23.83;;;16.67;;
69594;SDS011;56800;52.142;5.364;2023-05-07T07:35:17;20.10;;;16.43;;
69594;SDS011;56800;52.142;5.364;2023-05-07T07:37:44;22.73;;;16.92;;
69594;SDS011;56800;52.142;5.364;2023-05-07T07:40:11;22.45;;;16.65;;
69594;SDS011;56800;52.142;5.364;2023-05-07T07:42:38;24.20;;;16.83;;
69594;SDS011;56800;52.142;5.364;2023-05-07T07:45:05;26.52;;;18.40;;
69594;SDS011;56800;52.142;5.364;2023-05-07T07:47:32;21.93;;;17.23;;
69594;SDS011;56800;52.142;5.364;2023-05-07T07:49:59;20.00;;;16.05;;
69594;SDS011;56800;52.142;5.364;2023-05-07T07:52:26;23.90;;;16.98;;
69594;SDS011;56800;52.142;5.364;2023-05-07T07:54:52;24.15;;;16.85;;
69594;SDS011;56800;52.142;5.364;2023-05-07T07:57:19;20.42;;;16.42;;
69594;SDS011;56800;52.142;5.364;2023-05-07T07:59:46;23.67;;;17.30;;
69594;SDS011;56800;52.142;5.364;2023-05-07T08:02:12;27.33;;;16.75;;
69594;SDS011;56800;52.142;5.364;2023-05-07T08:04:39;23.35;;;17.55;;
69594;SDS011;56800;52.142;5.364;2023-05-07T08:07:06;22.85;;;16.70;;
69594;SDS011;56800;52.142;5.364;2023-05-07T08:09:33;22.15;;;16.38;;
69594;SDS011;56800;52.142;5.364;2023-05-07T08:12:00;19.07;;;16.07;;
69594;SDS011;56800;52.142;5.364;2023-05-07T08:14:27;23.88;;;16.58;;
69594;SDS011;56800;52.142;5.364;2023-05-07T08:16:54;24.38;;;16.90;;
69594;SDS011;56800;52.142;5.364;2023-05-07T08:19:21;24.35;;;16.35;;
69594;SDS011;56800;52.142;5.364;2023-05-07T08:21:49;24.35;;;16.80;;
69594;SDS011;56800;52.142;5.364;2023-05-07T08:24:17;20.53;;;16.67;;
69594;SDS011;56800;52.142;5.364;2023-05-07T08:26:44;23.17;;;17.83;;
69594;SDS011;56800;52.142;5.364;2023-05-07T08:29:12;20.38;;;17.70;;
69594;SDS011;56800;52.142;5.364;2023-05-07T08:31:39;24.10;;;18.67;;
69594;SDS011;56800;52.142;5.364;2023-05-07T08:34:05;23.35;;;17.73;;
69594;SDS011;56800;52.142;5.364;2023-05-07T08:36:35;23.13;;;18.00;;
69594;SDS011;56800;52.142;5.364;2023-05-07T08:39:02;22.52;;;16.88;;
69594;SDS011;56800;52.142;5.364;2023-05-07T08:41:29;26.40;;;18.88;;
69594;SDS011;56800;52.142;5.364;2023-05-07T08:43:57;21.73;;;16.65;;
69594;SDS011;56800;52.142;5.364;2023-05-07T08:46:26;23.98;;;18.88;;
69594;SDS011;56800;52.142;5.364;2023-05-07T08:48:57;22.70;;;18.37;;
69594;SDS011;56800;52.142;5.364;2023-05-07T08:51:24;22.77;;;19.20;;
69594;SDS011;56800;52.142;5.364;2023-05-07T08:53:51;24.48;;;18.30;;
69594;SDS011;56800;52.142;5.364;2023-05-07T08:56:18;21.20;;;18.70;;
69594;SDS011;56800;52.142;5.364;2023-05-07T08:58:47;24.48;;;18.70;;
69594;SDS011;56800;52.142;5.364;2023-05-07T09:01:14;24.07;;;18.77;;
69594;SDS011;56800;52.142;5.364;2023-05-07T09:03:46;24.98;;;19.17;;
69594;SDS011;56800;52.142;5.364;2023-05-07T09:06:13;28.95;;;18.52;;
69594;SDS011;56800;52.142;5.364;2023-05-07T09:08:40;28.23;;;19.30;;
69594;SDS011;56800;52.142;5.364;2023-05-07T09:11:06;24.88;;;19.48;;
69594;SDS011;56800;52.142;5.364;2023-05-07T09:13:33;23.57;;;18.17;;
69594;SDS011;56800;52.142;5.364;2023-05-07T09:16:09;23.85;;;19.08;;
69594;SDS011;56800;52.142;5.364;2023-05-07T09:18:41;21.73;;;19.20;;
69594;SDS011;56800;52.142;5.364;2023-05-07T09:21:15;25.27;;;19.25;;
69594;SDS011;56800;52.142;5.364;2023-05-07T09:23:45;21.65;;;17.58;;
69594;SDS011;56800;52.142;5.364;2023-05-07T09:26:11;22.87;;;18.20;;
69594;SDS011;56800;52.142;5.364;2023-05-07T09:28:39;24.40;;;18.35;;
69594;SDS011;56800;52.142;5.364;2023-05-07T09:31:07;20.27;;;17.70;;
69594;SDS011;56800;52.142;5.364;2023-05-07T09:33:35;22.95;;;16.23;;
69594;SDS011;56800;52.142;5.364;2023-05-07T09:36:02;16.98;;;13.45;;
69594;SDS011;56800;52.142;5.364;2023-05-07T09:38:33;20.37;;;15.90;;
69594;SDS011;56800;52.142;5.364;2023-05-07T09:41:13;22.10;;;14.40;;
69594;SDS011;56800;52.142;5.364;2023-05-07T09:43:40;18.77;;;14.43;;
69594;SDS011;56800;52.142;5.364;2023-05-07T09:46:13;16.95;;;14.45;;
69594;SDS011;56800;52.142;5.364;2023-05-07T09:48:42;21.92;;;15.15;;
69594;SDS011;56800;52.142;5.364;2023-05-07T09:51:33;24.73;;;15.53;;
69594;SDS011;56800;52.142;5.364;2023-05-07T09:54:07;18.67;;;14.95;;
69594;SDS011;56800;52.142;5.364;2023-05-07T09:56:34;17.33;;;14.35;;
69594;SDS011;56800;52.142;5.364;2023-05-07T09:59:03;17.63;;;14.10;;
69594;SDS011;56800;52.142;5.364;2023-05-07T10:01:32;14.48;;;12.10;;
69594;SDS011;56800;52.142;5.364;2023-05-07T10:04:02;18.20;;;13.63;;
69594;SDS011;56800;52.142;5.364;2023-05-07T10:06:30;18.42;;;13.85;;
69594;SDS011;56800;52.142;5.364;2023-05-07T10:08:57;15.45;;;12.05;;
69594;SDS011;56800;52.142;5.364;2023-05-07T10:11:24;20.70;;;13.23;;
69594;SDS011;56800;52.142;5.364;2023-05-07T10:13:52;19.40;;;12.60;;
69594;SDS011;56800;52.142;5.364;2023-05-07T10:16:20;18.10;;;12.67;;
69594;SDS011;56800;52.142;5.364;2023-05-07T10:18:47;15.73;;;12.10;;
69594;SDS011;56800;52.142;5.364;2023-05-07T10:21:16;15.75;;;11.63;;
69594;SDS011;56800;52.142;5.364;2023-05-07T10:23:44;17.65;;;11.55;;
69594;SDS011;56800;52.142;5.364;2023-05-07T10:26:14;15.85;;;11.45;;
69594;SDS011;56800;52.142;5.364;2023-05-07T10:28:44;19.33;;;13.23;;
69594;SDS011;56800;52.142;5.364;2023-05-07T10:31:19;18.25;;;13.32;;
69594;SDS011;56800;52.142;5.364;2023-05-07T10:34:09;18.55;;;12.50;;
69594;SDS011;56800;52.142;5.364;2023-05-07T10:36:40;25.23;;;13.82;;
69594;SDS011;56800;52.142;5.364;2023-05-07T10:39:08;17.60;;;13.60;;
69594;SDS011;56800;52.142;5.364;2023-05-07T10:41:35;18.87;;;14.10;;
69594;SDS011;56800;52.142;5.364;2023-05-07T10:44:03;18.33;;;14.10;;
69594;SDS011;56800;52.142;5.364;2023-05-07T10:46:29;22.20;;;14.25;;
69594;SDS011;56800;52.142;5.364;2023-05-07T10:51:35;19.45;;;12.88;;
69594;SDS011;56800;52.142;5.364;2023-05-07T10:56:41;19.48;;;13.35;;
69594;SDS011;56800;52.142;5.364;2023-05-07T11:01:50;22.92;;;14.55;;
69594;SDS011;56800;52.142;5.364;2023-05-07T11:04:18;18.60;;;14.27;;
69594;SDS011;56800;52.142;5.364;2023-05-07T11:07:15;27.50;;;13.93;;
69594;SDS011;56800;52.142;5.364;2023-05-07T11:15:04;22.20;;;14.68;;
69594;SDS011;56800;52.142;5.364;2023-05-07T11:17:35;22.02;;;15.05;;
69594;SDS011;56800;52.142;5.364;2023-05-07T11:20:19;22.00;;;15.50;;
69594;SDS011;56800;52.142;5.364;2023-05-07T11:22:47;18.30;;;14.65;;
69594;SDS011;56800;52.142;5.364;2023-05-07T11:25:17;21.52;;;14.55;;
69594;SDS011;56800;52.142;5.364;2023-05-07T11:27:47;17.77;;;13.98;;
69594;SDS011;56800;52.142;5.364;2023-05-07T11:30:16;19.85;;;15.90;;
69594;SDS011;56800;52.142;5.364;2023-05-07T11:32:46;20.93;;;15.20;;
69594;SDS011;56800;52.142;5.364;2023-05-07T11:35:14;22.83;;;15.60;;
69594;SDS011;56800;52.142;5.364;2023-05-07T11:37:42;18.90;;;15.18;;
69594;SDS011;56800;52.142;5.364;2023-05-07T11:40:11;19.52;;;15.23;;
69594;SDS011;56800;52.142;5.364;2023-05-07T11:42:40;19.48;;;14.10;;
69594;SDS011;56800;52.142;5.364;2023-05-07T11:45:10;17.20;;;13.73;;
69594;SDS011;56800;52.142;5.364;2023-05-07T11:47:37;19.02;;;14.13;;
69594;SDS011;56800;52.142;5.364;2023-05-07T11:50:07;25.63;;;14.68;;
69594;SDS011;56800;52.142;5.364;2023-05-07T11:52:34;19.58;;;13.60;;
69594;SDS011;56800;52.142;5.364;2023-05-07T11:55:01;24.95;;;14.00;;
69594;SDS011;56800;52.142;5.364;2023-05-07T11:57:29;24.30;;;14.07;;
69594;SDS011;56800;52.142;5.364;2023-05-07T11:59:57;21.00;;;13.45;;
69594;SDS011;56800;52.142;5.364;2023-05-07T12:02:25;21.08;;;15.68;;
69594;SDS011;56800;52.142;5.364;2023-05-07T12:04:52;25.08;;;15.13;;
69594;SDS011;56800;52.142;5.364;2023-05-07T12:07:20;21.20;;;15.57;;
69594;SDS011;56800;52.142;5.364;2023-05-07T12:09:47;32.17;;;15.53;;
69594;SDS011;56800;52.142;5.364;2023-05-07T12:12:14;26.25;;;15.73;;
69594;SDS011;56800;52.142;5.364;2023-05-07T12:14:43;21.40;;;16.05;;
69594;SDS011;56800;52.142;5.364;2023-05-07T12:17:11;20.45;;;15.95;;
69594;SDS011;56800;52.142;5.364;2023-05-07T12:19:40;21.05;;;15.27;;
69594;SDS011;56800;52.142;5.364;2023-05-07T12:22:08;25.27;;;15.77;;
69594;SDS011;56800;52.142;5.364;2023-05-07T12:24:49;23.33;;;15.80;;
69594;SDS011;56800;52.142;5.364;2023-05-07T12:27:23;21.73;;;14.43;;
69594;SDS011;56800;52.142;5.364;2023-05-07T12:29:50;20.70;;;15.23;;
69594;SDS011;56800;52.142;5.364;2023-05-07T12:32:17;20.73;;;14.77;;
69594;SDS011;56800;52.142;5.364;2023-05-07T12:34:46;22.77;;;15.03;;
69594;SDS011;56800;52.142;5.364;2023-05-07T12:37:15;21.92;;;14.45;;
69594;SDS011;56800;52.142;5.364;2023-05-07T12:39:49;19.23;;;14.95;;
69594;SDS011;56800;52.142;5.364;2023-05-07T12:42:32;21.48;;;15.82;;
69594;SDS011;56800;52.142;5.364;2023-05-07T12:45:07;19.23;;;15.35;;
69594;SDS011;56800;52.142;5.364;2023-05-07T12:47:38;22.60;;;15.13;;
69594;SDS011;56800;52.142;5.364;2023-05-07T12:50:05;18.00;;;15.60;;
69594;SDS011;56800;52.142;5.364;2023-05-07T12:52:33;19.08;;;14.23;;
69594;SDS011;56800;52.142;5.364;2023-05-07T12:55:06;19.90;;;12.70;;
69594;SDS011;56800;52.142;5.364;2023-05-07T12:57:38;20.80;;;13.38;;
69594;SDS011;56800;52.142;5.364;2023-05-07T13:00:06;22.10;;;13.63;;
69594;SDS011;56800;52.142;5.364;2023-05-07T13:02:34;18.20;;;14.05;;
69594;SDS011;56800;52.142;5.364;2023-05-07T13:05:03;17.75;;;13.60;;
69594;SDS011;56800;52.142;5.364;2023-05-07T13:07:30;20.45;;;14.32;;
69594;SDS011;56800;52.142;5.364;2023-05-07T13:09:57;19.83;;;14.70;;
69594;SDS011;56800;52.142;5.364;2023-05-07T13:12:23;17.73;;;13.43;;
69594;SDS011;56800;52.142;5.364;2023-05-07T13:14:50;19.48;;;14.32;;
69594;SDS011;56800;52.142;5.364;2023-05-07T13:17:17;16.95;;;13.38;;
69594;SDS011;56800;52.142;5.364;2023-05-07T13:19:44;17.00;;;10.75;;
69594;SDS011;56800;52.142;5.364;2023-05-07T13:22:11;14.05;;;10.60;;
69594;SDS011;56800;52.142;5.364;2023-05-07T13:24:38;11.65;;;9.68;;
69594;SDS011;56800;52.142;5.364;2023-05-07T13:27:07;16.40;;;8.15;;
69594;SDS011;56800;52.142;5.364;2023-05-07T13:29:34;14.48;;;7.57;;
69594;SDS011;56800;52.142;5.364;2023-05-07T13:32:01;10.07;;;6.60;;
69594;SDS011;56800;52.142;5.364;2023-05-07T13:34:27;11.55;;;6.57;;
69594;SDS011;56800;52.142;5.364;2023-05-07T13:36:54;11.15;;;6.88;;
69594;SDS011;56800;52.142;5.364;2023-05-07T13:39:21;13.25;;;7.63;;
69594;SDS011;56800;52.142;5.364;2023-05-07T13:41:48;10.85;;;7.70;;
69594;SDS011;56800;52.142;5.364;2023-05-07T13:44:14;15.43;;;7.55;;
69594;SDS011;56800;52.142;5.364;2023-05-07T13:46:41;12.20;;;7.90;;
69594;SDS011;56800;52.142;5.364;2023-05-07T13:49:08;9.77;;;7.17;;
69594;SDS011;56800;52.142;5.364;2023-05-07T13:51:37;17.95;;;9.57;;
69594;SDS011;56800;52.142;5.364;2023-05-07T13:54:03;14.30;;;9.98;;
69594;SDS011;56800;52.142;5.364;2023-05-07T13:56:30;17.33;;;12.60;;
69594;SDS011;56800;52.142;5.364;2023-05-07T13:58:58;15.35;;;11.32;;
69594;SDS011;56800;52.142;5.364;2023-05-07T14:01:26;14.77;;;11.43;;
69594;SDS011;56800;52.142;5.364;2023-05-07T14:03:53;16.33;;;12.10;;
69594;SDS011;56800;52.142;5.364;2023-05-07T14:06:21;14.13;;;11.18;;
69594;SDS011;56800;52.142;5.364;2023-05-07T14:08:48;15.80;;;10.75;;
69594;SDS011;56800;52.142;5.364;2023-05-07T14:11:14;17.08;;;10.65;;
69594;SDS011;56800;52.142;5.364;2023-05-07T14:13:41;21.27;;;12.43;;
69594;SDS011;56800;52.142;5.364;2023-05-07T14:16:08;19.30;;;11.82;;
69594;SDS011;56800;52.142;5.364;2023-05-07T14:18:34;16.70;;;10.77;;
69594;SDS011;56800;52.142;5.364;2023-05-07T14:21:03;15.20;;;11.52;;
69594;SDS011;56800;52.142;5.364;2023-05-07T14:23:32;14.90;;;12.68;;
69594;SDS011;56800;52.142;5.364;2023-05-07T14:25:58;14.70;;;11.30;;
69594;SDS011;56800;52.142;5.364;2023-05-07T14:28:26;16.70;;;12.40;;
69594;SDS011;56800;52.142;5.364;2023-05-07T14:30:52;14.93;;;11.27;;
69594;SDS011;56800;52.142;5.364;2023-05-07T14:33:19;16.80;;;12.45;;
69594;SDS011;56800;52.142;5.364;2023-05-07T14:35:46;14.73;;;11.93;;
69594;SDS011;56800;52.142;5.364;2023-05-07T14:38:15;14.83;;;10.67;;
69594;SDS011;56800;52.142;5.364;2023-05-07T14:40:41;15.88;;;11.55;;